UAE777 KBOS-CYHZ
Flight info
| Callsign | UAE777 |
|---|---|
| Flight time | 0h 56m |
| Altitude | 39000 |
| Route | LBSTA8 LBSTA DCT ALLEX FUNDY5 |
| Aircraft | A333/H-SDE3GHIJ2J3J5M1RVWXY/LB2D1 |
Departure
| Time | 2026-05-05 01:02 |
|---|---|
| Airport | Boston Logan International Airport (KBOS) |
Arrival
| Time | 2026-05-05 01:59 |
|---|---|
| Airport | Halifax / Stanfield International Airport (CYHZ) |
| Time | Latitude | Longitude | Altitude | Speed | Heading |
|---|---|---|---|---|---|
| 2026-05-05 00:22 | 42.37043 | -71.01791 | 21 ft | 0 kts | 208° |
| 2026-05-05 00:34 | 42.37044 | -71.01790 | 21 ft | 1 kts | 208° |
| 2026-05-05 00:35 | 42.37067 | -71.01773 | 21 ft | 5 kts | 194° |
| 2026-05-05 00:35 | 42.37130 | -71.01773 | 21 ft | 12 kts | 161° |
| 2026-05-05 00:35 | 42.37145 | -71.01783 | 21 ft | 0 kts | 143° |
| 2026-05-05 00:46 | 42.37143 | -71.01780 | 21 ft | 1 kts | 135° |
| 2026-05-05 00:46 | 42.37141 | -71.01778 | 21 ft | 0 kts | 133° |
| 2026-05-05 00:47 | 42.37131 | -71.01743 | 21 ft | 12 kts | 93° |
| 2026-05-05 00:47 | 42.37182 | -71.01627 | 20 ft | 16 kts | 46° |
| 2026-05-05 00:48 | 42.37152 | -71.01662 | 21 ft | 1 kts | 63° |
| 2026-05-05 00:48 | 42.37148 | -71.01646 | 21 ft | 3 kts | 117° |
| 2026-05-05 00:48 | 42.37133 | -71.01613 | 20 ft | 4 kts | 126° |
| 2026-05-05 00:48 | 42.37094 | -71.01555 | 20 ft | 12 kts | 135° |
| 2026-05-05 00:49 | 42.37031 | -71.01469 | 20 ft | 12 kts | 135° |
| 2026-05-05 00:49 | 42.37008 | -71.01437 | 21 ft | 0 kts | 135° |
| 2026-05-05 00:50 | 42.37006 | -71.01435 | 21 ft | 0 kts | 135° |
| 2026-05-05 00:50 | 42.37005 | -71.01434 | 21 ft | 0 kts | 135° |
| 2026-05-05 00:51 | 42.37001 | -71.01428 | 21 ft | 1 kts | 135° |
| 2026-05-05 00:52 | 42.36998 | -71.01424 | 21 ft | 0 kts | 135° |
| 2026-05-05 00:52 | 42.36997 | -71.01423 | 21 ft | 0 kts | 135° |
| 2026-05-05 00:53 | 42.36973 | -71.01392 | 21 ft | 5 kts | 135° |
| 2026-05-05 00:53 | 42.36948 | -71.01357 | 21 ft | 4 kts | 135° |
| 2026-05-05 00:54 | 42.36929 | -71.01326 | 21 ft | 4 kts | 123° |
| 2026-05-05 00:54 | 42.36924 | -71.01265 | 21 ft | 8 kts | 83° |
| 2026-05-05 00:54 | 42.36937 | -71.01186 | 21 ft | 8 kts | 66° |
| 2026-05-05 00:54 | 42.37006 | -71.01097 | 20 ft | 16 kts | 27° |
| 2026-05-05 00:55 | 42.37071 | -71.01054 | 19 ft | 7 kts | 26° |
| 2026-05-05 00:55 | 42.37110 | -71.01028 | 18 ft | 6 kts | 25° |
| 2026-05-05 00:55 | 42.37180 | -71.00983 | 17 ft | 16 kts | 25° |
| 2026-05-05 00:55 | 42.37291 | -71.00912 | 17 ft | 18 kts | 24° |
| 2026-05-05 00:56 | 42.37403 | -71.00855 | 17 ft | 11 kts | 19° |
| 2026-05-05 00:56 | 42.37477 | -71.00820 | 17 ft | 11 kts | 19° |
| 2026-05-05 00:56 | 42.37493 | -71.00813 | 17 ft | 1 kts | 20° |
| 2026-05-05 00:56 | 42.37516 | -71.00800 | 17 ft | 11 kts | 20° |
| 2026-05-05 00:57 | 42.37593 | -71.00763 | 17 ft | 10 kts | 19° |
| 2026-05-05 00:57 | 42.37624 | -71.00748 | 17 ft | 0 kts | 20° |
| 2026-05-05 00:57 | 42.37625 | -71.00748 | 17 ft | 1 kts | 19° |
| 2026-05-05 00:57 | 42.37648 | -71.00737 | 17 ft | 2 kts | 19° |
| 2026-05-05 00:58 | 42.37664 | -71.00729 | 17 ft | 2 kts | 19° |
| 2026-05-05 00:58 | 42.37727 | -71.00699 | 17 ft | 13 kts | 19° |
| 2026-05-05 00:58 | 42.37807 | -71.00655 | 17 ft | 10 kts | 33° |
| 2026-05-05 00:58 | 42.37832 | -71.00608 | 17 ft | 4 kts | 74° |
| 2026-05-05 00:59 | 42.37834 | -71.00585 | 17 ft | 0 kts | 86° |
| 2026-05-05 00:59 | 42.37837 | -71.00584 | 17 ft | 0 kts | 107° |
| 2026-05-05 01:00 | 42.37835 | -71.00575 | 17 ft | 5 kts | 107° |
| 2026-05-05 01:00 | 42.37821 | -71.00516 | 17 ft | 6 kts | 109° |
| 2026-05-05 01:00 | 42.37809 | -71.00484 | 17 ft | 1 kts | 135° |
| 2026-05-05 01:01 | 42.37800 | -71.00477 | 17 ft | 1 kts | 165° |
| 2026-05-05 01:01 | 42.37777 | -71.00481 | 17 ft | 3 kts | 189° |
| 2026-05-05 01:01 | 42.37752 | -71.00490 | 17 ft | 4 kts | 198° |
| 2026-05-05 01:01 | 42.37555 | -71.00584 | 18 ft | 71 kts | 200° |
| 2026-05-05 01:02 | 42.36818 | -71.00942 | 21 ft | 152 kts | 199° |
| 2026-05-05 01:02 | 42.35651 | -71.01493 | 350 ft | 195 kts | 199° |
| 2026-05-05 01:02 | 42.34262 | -71.02127 | 995 ft | 220 kts | 201° |
| 2026-05-05 01:02 | 42.32732 | -71.02368 | 1627 ft | 232 kts | 177° |
| 2026-05-05 01:03 | 42.31230 | -71.01423 | 2241 ft | 252 kts | 146° |
| 2026-05-05 01:03 | 42.30197 | -70.99445 | 2856 ft | 272 kts | 115° |
| 2026-05-05 01:03 | 42.29946 | -70.96874 | 3514 ft | 291 kts | 85° |
| 2026-05-05 01:03 | 42.30563 | -70.94263 | 3920 ft | 307 kts | 60° |
| 2026-05-05 01:04 | 42.31673 | -70.91592 | 3880 ft | 342 kts | 69° |
| 2026-05-05 01:04 | 42.32744 | -70.85200 | 4958 ft | 360 kts | 78° |
| 2026-05-05 01:04 | 42.33235 | -70.81909 | 6014 ft | 359 kts | 77° |
| 2026-05-05 01:05 | 42.33889 | -70.78662 | 6883 ft | 360 kts | 64° |
| 2026-05-05 01:05 | 42.35292 | -70.75901 | 7752 ft | 358 kts | 42° |
| 2026-05-05 01:05 | 42.37261 | -70.73943 | 8620 ft | 354 kts | 22° |
| 2026-05-05 01:05 | 42.39587 | -70.72990 | 9455 ft | 352 kts | 8° |
| 2026-05-05 01:06 | 42.41940 | -70.72114 | 10258 ft | 358 kts | 12° |
| 2026-05-05 01:06 | 42.44319 | -70.71134 | 11007 ft | 363 kts | 13° |
| 2026-05-05 01:06 | 42.46802 | -70.70323 | 11748 ft | 366 kts | 7° |
| 2026-05-05 01:06 | 42.49278 | -70.69601 | 12478 ft | 371 kts | 8° |
| 2026-05-05 01:07 | 42.51830 | -70.68838 | 13206 ft | 376 kts | 8° |
| 2026-05-05 01:07 | 42.54366 | -70.68078 | 13881 ft | 380 kts | 8° |
| 2026-05-05 01:07 | 42.56979 | -70.67292 | 14639 ft | 384 kts | 8° |
| 2026-05-05 01:07 | 42.59562 | -70.66515 | 15338 ft | 387 kts | 8° |
| 2026-05-05 01:08 | 42.62210 | -70.65717 | 16101 ft | 391 kts | 7° |
| 2026-05-05 01:08 | 42.64885 | -70.64909 | 16780 ft | 395 kts | 7° |
| 2026-05-05 01:08 | 42.67554 | -70.64105 | 17400 ft | 398 kts | 7° |
| 2026-05-05 01:08 | 42.70270 | -70.63496 | 18016 ft | 400 kts | 4° |
| 2026-05-05 01:09 | 42.73019 | -70.62893 | 18655 ft | 403 kts | 4° |
| 2026-05-05 01:09 | 42.75794 | -70.62283 | 19346 ft | 405 kts | 4° |
| 2026-05-05 01:09 | 42.78508 | -70.61255 | 20082 ft | 413 kts | 18° |
| 2026-05-05 01:09 | 42.80915 | -70.59116 | 20831 ft | 423 kts | 37° |
| 2026-05-05 01:10 | 42.82776 | -70.56004 | 21679 ft | 428 kts | 54° |
| 2026-05-05 01:10 | 42.84288 | -70.52518 | 22303 ft | 429 kts | 53° |
| 2026-05-05 01:10 | 42.85852 | -70.49101 | 23011 ft | 427 kts | 52° |
| 2026-05-05 01:10 | 42.87435 | -70.45711 | 23764 ft | 423 kts | 52° |
| 2026-05-05 01:11 | 42.89017 | -70.42348 | 24490 ft | 421 kts | 51° |
| 2026-05-05 01:11 | 42.90581 | -70.39030 | 25210 ft | 419 kts | 52° |
| 2026-05-05 01:11 | 42.92160 | -70.35678 | 25928 ft | 417 kts | 51° |
| 2026-05-05 01:11 | 42.93711 | -70.32390 | 26535 ft | 417 kts | 51° |
| 2026-05-05 01:12 | 42.95272 | -70.29069 | 27336 ft | 411 kts | 51° |
| 2026-05-05 01:12 | 42.96804 | -70.25811 | 27995 ft | 409 kts | 51° |
| 2026-05-05 01:12 | 42.98325 | -70.22575 | 28629 ft | 408 kts | 51° |
| 2026-05-05 01:12 | 42.99836 | -70.19351 | 29319 ft | 404 kts | 51° |
| 2026-05-05 01:13 | 43.01347 | -70.16128 | 29888 ft | 404 kts | 51° |
| 2026-05-05 01:13 | 43.02870 | -70.12878 | 30577 ft | 401 kts | 50° |
| 2026-05-05 01:13 | 43.04365 | -70.09675 | 31272 ft | 396 kts | 50° |
| 2026-05-05 01:13 | 43.05856 | -70.06485 | 31807 ft | 395 kts | 50° |
| 2026-05-05 01:14 | 43.07322 | -70.03339 | 32327 ft | 393 kts | 49° |
| 2026-05-05 01:14 | 43.08787 | -70.00198 | 32820 ft | 391 kts | 49° |
| 2026-05-05 01:14 | 43.11710 | -69.93922 | 32844 ft | 389 kts | 49° |
| 2026-05-05 01:15 | 43.14621 | -69.87653 | 32861 ft | 387 kts | 49° |
| 2026-05-05 01:15 | 43.17491 | -69.81459 | 32863 ft | 389 kts | 49° |
| 2026-05-05 01:16 | 43.20383 | -69.75208 | 32861 ft | 390 kts | 49° |
| 2026-05-05 01:16 | 43.23278 | -69.68933 | 32863 ft | 390 kts | 49° |
| 2026-05-05 01:17 | 43.26183 | -69.62629 | 32877 ft | 400 kts | 49° |
| 2026-05-05 01:17 | 43.27683 | -69.59377 | 32893 ft | 422 kts | 50° |
| 2026-05-05 01:17 | 43.29311 | -69.55840 | 32900 ft | 456 kts | 50° |
| 2026-05-05 01:18 | 43.31052 | -69.52046 | 32874 ft | 487 kts | 51° |
| 2026-05-05 01:18 | 43.32866 | -69.48066 | 32868 ft | 491 kts | 51° |
| 2026-05-05 01:18 | 43.36505 | -69.40095 | 32862 ft | 498 kts | 51° |
| 2026-05-05 01:19 | 43.40204 | -69.31978 | 32858 ft | 503 kts | 52° |
| 2026-05-05 01:19 | 43.43874 | -69.23901 | 32866 ft | 502 kts | 52° |
| 2026-05-05 01:20 | 43.47561 | -69.15766 | 32859 ft | 503 kts | 51° |
| 2026-05-05 01:20 | 43.51234 | -69.07642 | 32860 ft | 501 kts | 51° |
| 2026-05-05 01:21 | 43.54921 | -68.99465 | 32858 ft | 503 kts | 52° |
| 2026-05-05 01:21 | 43.58576 | -68.91329 | 32856 ft | 503 kts | 51° |
| 2026-05-05 01:22 | 43.62258 | -68.83114 | 32857 ft | 505 kts | 52° |
| 2026-05-05 01:22 | 43.65927 | -68.74904 | 32869 ft | 503 kts | 52° |
| 2026-05-05 01:23 | 43.69588 | -68.66687 | 32862 ft | 502 kts | 51° |
| 2026-05-05 01:23 | 43.73222 | -68.58514 | 32863 ft | 503 kts | 51° |
| 2026-05-05 01:24 | 43.76874 | -68.50275 | 32861 ft | 505 kts | 52° |
| 2026-05-05 01:24 | 43.80556 | -68.41939 | 32865 ft | 505 kts | 51° |
| 2026-05-05 01:25 | 43.84182 | -68.33710 | 32854 ft | 505 kts | 52° |
| 2026-05-05 01:25 | 43.87814 | -68.25449 | 32861 ft | 503 kts | 52° |
| 2026-05-05 01:26 | 43.91443 | -68.17164 | 32861 ft | 504 kts | 52° |
| 2026-05-05 01:26 | 43.95065 | -68.08870 | 32856 ft | 503 kts | 52° |
| 2026-05-05 01:27 | 43.98673 | -68.00592 | 32860 ft | 503 kts | 52° |
| 2026-05-05 01:27 | 44.02278 | -67.92292 | 32858 ft | 504 kts | 52° |
| 2026-05-05 01:28 | 44.05899 | -67.83930 | 32856 ft | 503 kts | 52° |
| 2026-05-05 01:28 | 44.09472 | -67.75658 | 32858 ft | 503 kts | 52° |
| 2026-05-05 01:29 | 44.13084 | -67.67268 | 32865 ft | 506 kts | 52° |
| 2026-05-05 01:29 | 44.16674 | -67.58906 | 32861 ft | 504 kts | 52° |
| 2026-05-05 01:30 | 44.20262 | -67.50529 | 32866 ft | 506 kts | 52° |
| 2026-05-05 01:30 | 44.23858 | -67.42105 | 32855 ft | 509 kts | 52° |
| 2026-05-05 01:31 | 44.27460 | -67.33640 | 32857 ft | 508 kts | 52° |
| 2026-05-05 01:31 | 44.31084 | -67.25101 | 32855 ft | 511 kts | 52° |
| 2026-05-05 01:32 | 44.34667 | -67.16627 | 32853 ft | 509 kts | 52° |
| 2026-05-05 01:32 | 44.38281 | -67.08064 | 32857 ft | 510 kts | 52° |
| 2026-05-05 01:33 | 44.41601 | -66.99352 | 32839 ft | 522 kts | 65° |
| 2026-05-05 01:33 | 44.43484 | -66.89433 | 32857 ft | 530 kts | 70° |
| 2026-05-05 01:34 | 44.45213 | -66.79456 | 32881 ft | 532 kts | 70° |
| 2026-05-05 01:34 | 44.46928 | -66.69434 | 32867 ft | 531 kts | 70° |
| 2026-05-05 01:35 | 44.48632 | -66.59410 | 32853 ft | 533 kts | 70° |
| 2026-05-05 01:35 | 44.50330 | -66.49380 | 32859 ft | 533 kts | 70° |
| 2026-05-05 01:36 | 44.52029 | -66.39275 | 32875 ft | 535 kts | 71° |
| 2026-05-05 01:36 | 44.53714 | -66.29176 | 32868 ft | 535 kts | 71° |
| 2026-05-05 01:37 | 44.55402 | -66.19034 | 32875 ft | 536 kts | 71° |
| 2026-05-05 01:37 | 44.57094 | -66.08781 | 32864 ft | 541 kts | 71° |
| 2026-05-05 01:38 | 44.58767 | -65.98586 | 32871 ft | 540 kts | 71° |
| 2026-05-05 01:38 | 44.60440 | -65.88351 | 32839 ft | 541 kts | 71° |
| 2026-05-05 01:39 | 44.62105 | -65.78067 | 32815 ft | 539 kts | 71° |
| 2026-05-05 01:39 | 44.63760 | -65.67812 | 32821 ft | 543 kts | 72° |
| 2026-05-05 01:40 | 44.65406 | -65.57530 | 32826 ft | 543 kts | 72° |
| 2026-05-05 01:40 | 44.67052 | -65.47203 | 32848 ft | 542 kts | 72° |
| 2026-05-05 01:41 | 44.68686 | -65.36874 | 32863 ft | 543 kts | 72° |
| 2026-05-05 01:41 | 44.70312 | -65.26549 | 32804 ft | 545 kts | 73° |
| 2026-05-05 01:42 | 44.71928 | -65.16182 | 32835 ft | 545 kts | 73° |
| 2026-05-05 01:42 | 44.73532 | -65.05868 | 32936 ft | 539 kts | 73° |
| 2026-05-05 01:43 | 44.74323 | -65.00732 | 32513 ft | 533 kts | 73° |
| 2026-05-05 01:43 | 44.75091 | -64.95702 | 31404 ft | 544 kts | 71° |
| 2026-05-05 01:43 | 44.75894 | -64.90485 | 30132 ft | 546 kts | 71° |
| 2026-05-05 01:43 | 44.76687 | -64.85329 | 28800 ft | 548 kts | 72° |
| 2026-05-05 01:44 | 44.77662 | -64.80176 | 27160 ft | 546 kts | 65° |
| 2026-05-05 01:44 | 44.78857 | -64.75154 | 25986 ft | 543 kts | 65° |
| 2026-05-05 01:44 | 44.79970 | -64.70171 | 25185 ft | 534 kts | 67° |
| 2026-05-05 01:44 | 44.81047 | -64.65291 | 24254 ft | 516 kts | 66° |
| 2026-05-05 01:45 | 44.82100 | -64.60637 | 23818 ft | 494 kts | 66° |
| 2026-05-05 01:45 | 44.83161 | -64.55969 | 22410 ft | 505 kts | 66° |
| 2026-05-05 01:45 | 44.84212 | -64.51308 | 21795 ft | 496 kts | 66° |
| 2026-05-05 01:45 | 44.85245 | -64.46733 | 21086 ft | 491 kts | 66° |
| 2026-05-05 01:46 | 44.86261 | -64.42217 | 20350 ft | 486 kts | 67° |
| 2026-05-05 01:46 | 44.87274 | -64.37705 | 19626 ft | 482 kts | 68° |
| 2026-05-05 01:46 | 44.88273 | -64.33247 | 18897 ft | 478 kts | 69° |
| 2026-05-05 01:46 | 44.89270 | -64.28790 | 18176 ft | 473 kts | 69° |
| 2026-05-05 01:47 | 44.90243 | -64.24410 | 17418 ft | 462 kts | 69° |
| 2026-05-05 01:47 | 44.91190 | -64.20164 | 16253 ft | 458 kts | 69° |
| 2026-05-05 01:47 | 44.92127 | -64.15946 | 15101 ft | 453 kts | 69° |
| 2026-05-05 01:47 | 44.93056 | -64.11749 | 14423 ft | 447 kts | 69° |
| 2026-05-05 01:48 | 44.93971 | -64.07616 | 13731 ft | 438 kts | 69° |
| 2026-05-05 01:48 | 44.94874 | -64.03521 | 13004 ft | 437 kts | 69° |
| 2026-05-05 01:48 | 44.95748 | -63.99551 | 13056 ft | 415 kts | 70° |
| 2026-05-05 01:48 | 44.96585 | -63.95746 | 13026 ft | 397 kts | 69° |
| 2026-05-05 01:49 | 44.97375 | -63.92145 | 12882 ft | 376 kts | 69° |
| 2026-05-05 01:49 | 44.98121 | -63.88737 | 12819 ft | 351 kts | 68° |
| 2026-05-05 01:49 | 44.98819 | -63.85545 | 12702 ft | 326 kts | 68° |
| 2026-05-05 01:49 | 44.99474 | -63.82561 | 12313 ft | 316 kts | 68° |
| 2026-05-05 01:50 | 45.00106 | -63.79664 | 11957 ft | 305 kts | 68° |
| 2026-05-05 01:50 | 45.00724 | -63.76839 | 11441 ft | 300 kts | 68° |
| 2026-05-05 01:50 | 45.01329 | -63.74051 | 10936 ft | 296 kts | 67° |
| 2026-05-05 01:50 | 45.01933 | -63.71285 | 10370 ft | 295 kts | 68° |
| 2026-05-05 01:51 | 45.02536 | -63.68507 | 9805 ft | 293 kts | 68° |
| 2026-05-05 01:51 | 45.03123 | -63.65795 | 9277 ft | 290 kts | 68° |
| 2026-05-05 01:51 | 45.03713 | -63.63070 | 8754 ft | 287 kts | 68° |
| 2026-05-05 01:51 | 45.04293 | -63.60391 | 8281 ft | 283 kts | 68° |
| 2026-05-05 01:52 | 45.04859 | -63.57771 | 7819 ft | 278 kts | 68° |
| 2026-05-05 01:52 | 45.05420 | -63.55170 | 7255 ft | 277 kts | 68° |
| 2026-05-05 01:52 | 45.05974 | -63.52602 | 6745 ft | 273 kts | 68° |
| 2026-05-05 01:52 | 45.06517 | -63.50079 | 6209 ft | 270 kts | 68° |
| 2026-05-05 01:53 | 45.06878 | -63.47494 | 5693 ft | 270 kts | 92° |
| 2026-05-05 01:53 | 45.06431 | -63.45002 | 5234 ft | 257 kts | 124° |
| 2026-05-05 01:53 | 45.05450 | -63.42960 | 4732 ft | 250 kts | 130° |
| 2026-05-05 01:53 | 45.04454 | -63.40954 | 4225 ft | 247 kts | 130° |
| 2026-05-05 01:54 | 45.03280 | -63.39385 | 3951 ft | 216 kts | 166° |
| 2026-05-05 01:54 | 45.01982 | -63.39043 | 3873 ft | 174 kts | 198° |
| 2026-05-05 01:54 | 45.00859 | -63.39374 | 3507 ft | 159 kts | 213° |
| 2026-05-05 01:54 | 44.99847 | -63.39994 | 3309 ft | 157 kts | 218° |
| 2026-05-05 01:55 | 44.98888 | -63.40736 | 3030 ft | 159 kts | 220° |
| 2026-05-05 01:55 | 44.97983 | -63.41522 | 2862 ft | 144 kts | 222° |
| 2026-05-05 01:55 | 44.97188 | -63.42259 | 2567 ft | 129 kts | 223° |
| 2026-05-05 01:55 | 44.96464 | -63.42959 | 2393 ft | 126 kts | 223° |
| 2026-05-05 01:56 | 44.95748 | -63.43665 | 2210 ft | 127 kts | 222° |
| 2026-05-05 01:56 | 44.95028 | -63.44378 | 2034 ft | 128 kts | 221° |
| 2026-05-05 01:56 | 44.94313 | -63.45085 | 1844 ft | 125 kts | 220° |
| 2026-05-05 01:56 | 44.93586 | -63.45804 | 1666 ft | 127 kts | 219° |
| 2026-05-05 01:57 | 44.92858 | -63.46520 | 1488 ft | 128 kts | 218° |
| 2026-05-05 01:57 | 44.92122 | -63.47248 | 1303 ft | 131 kts | 217° |
| 2026-05-05 01:57 | 44.90597 | -63.48750 | 937 ft | 131 kts | 216° |
| 2026-05-05 01:58 | 44.89847 | -63.49490 | 758 ft | 133 kts | 215° |
| 2026-05-05 01:58 | 44.89084 | -63.50242 | 580 ft | 133 kts | 214° |
| 2026-05-05 01:58 | 44.88322 | -63.50987 | 471 ft | 132 kts | 217° |
| 2026-05-05 01:58 | 44.87723 | -63.51583 | 467 ft | 63 kts | 214° |
| 2026-05-05 01:59 | 44.87479 | -63.51852 | 472 ft | 25 kts | 234° |
| 2026-05-05 01:59 | 44.87462 | -63.51894 | 474 ft | 6 kts | 244° |
| 2026-05-05 01:59 | 44.87446 | -63.52001 | 474 ft | 14 kts | 273° |
| 2026-05-05 01:59 | 44.87477 | -63.52094 | 474 ft | 7 kts | 328° |
| 2026-05-05 02:00 | 44.87547 | -63.52079 | 473 ft | 13 kts | 25° |
| 2026-05-05 02:00 | 44.87610 | -63.52021 | 472 ft | 18 kts | 34° |
| 2026-05-05 02:01 | 44.87648 | -63.51984 | 471 ft | 20 kts | 34° |
| 2026-05-05 02:01 | 44.87833 | -63.51804 | 468 ft | 28 kts | 35° |
| 2026-05-05 02:01 | 44.87949 | -63.51689 | 464 ft | 32 kts | 34° |
| 2026-05-05 02:02 | 44.88228 | -63.51411 | 457 ft | 36 kts | 34° |
| 2026-05-05 02:02 | 44.88336 | -63.51306 | 458 ft | 14 kts | 34° |
| 2026-05-05 02:02 | 44.88426 | -63.51216 | 459 ft | 18 kts | 20° |
| 2026-05-05 02:02 | 44.88514 | -63.51224 | 458 ft | 3 kts | 336° |
| 2026-05-05 02:03 | 44.88525 | -63.51257 | 458 ft | 3 kts | 253° |
| 2026-05-05 02:03 | 44.88511 | -63.51317 | 458 ft | 8 kts | 257° |
| 2026-05-05 02:03 | 44.88508 | -63.51347 | 457 ft | 0 kts | 259° |